createdAt,value
2023-04-15T00:01:27.030Z,97839.41
2023-04-15T00:06:29.331Z,97832.72
2023-04-15T00:11:31.871Z,97763.03
2023-04-15T00:16:34.347Z,97819.44
2023-04-15T00:21:37.189Z,97886.06
2023-04-15T00:26:39.721Z,97872.72
2023-04-15T00:31:42.514Z,97854.72
2023-04-15T00:36:45.103Z,97882.09
2023-04-15T00:41:47.632Z,97882.91
2023-04-15T00:46:52.185Z,97871.16
2023-04-15T00:51:54.420Z,97814.69
2023-04-15T00:56:56.878Z,97873.50
2023-04-15T01:01:59.106Z,97809.22
2023-04-15T01:07:01.507Z,97817.03
2023-04-15T01:12:04.185Z,97863.28
2023-04-15T01:17:06.608Z,97873.03
2023-04-15T01:22:09.252Z,97853.78
2023-04-15T01:27:14.048Z,97898.56
2023-04-15T01:32:16.647Z,97890.63
2023-04-15T01:37:19.574Z,97855.34
2023-04-15T01:42:25.153Z,97840.50
2023-04-15T01:47:27.320Z,97839.69
2023-04-15T01:52:29.597Z,97919.66
2023-04-15T01:57:32.489Z,97927.50
2023-04-15T02:02:34.973Z,97876.53
2023-04-15T02:07:37.909Z,97882.84
2023-04-15T02:12:40.711Z,97795.81
2023-04-15T02:17:46.094Z,97883.72
2023-04-15T02:22:50.910Z,97934.53
2023-04-15T02:27:53.475Z,97960.03
2023-04-15T02:32:56.137Z,97902.31
2023-04-15T02:38:01.167Z,97829.53
2023-04-15T02:43:05.503Z,97887.91
2023-04-15T02:48:08.244Z,97918.00
2023-04-15T02:53:11.911Z,97907.88
2023-04-15T02:58:14.627Z,97868.72
2023-04-15T03:03:17.103Z,97940.75
2023-04-15T03:08:19.719Z,97943.91
2023-04-15T03:13:21.845Z,97903.16
2023-04-15T03:18:24.291Z,97938.19
2023-04-15T03:23:26.732Z,97904.53
2023-04-15T03:28:30.575Z,97893.91
2023-04-15T03:33:35.289Z,97896.22
2023-04-15T03:38:37.445Z,97946.38
2023-04-15T03:43:39.689Z,97920.16
2023-04-15T03:48:41.801Z,97893.03
2023-04-15T03:53:44.036Z,97965.59
2023-04-15T03:58:46.272Z,97976.16
2023-04-15T04:03:48.677Z,97926.00
2023-04-15T04:08:51.078Z,97831.16
2023-04-15T04:13:53.159Z,97974.63
2023-04-15T04:18:55.400Z,97945.66
2023-04-15T04:23:57.678Z,97917.44
2023-04-15T04:29:00.174Z,97979.44
2023-04-15T04:34:02.421Z,97978.66
2023-04-15T04:39:04.702Z,97972.34
2023-04-15T04:44:07.040Z,97944.13
2023-04-15T04:49:09.122Z,97928.44
2023-04-15T04:54:11.827Z,97940.97
2023-04-15T04:59:14.204Z,97998.25
2023-04-15T05:04:16.407Z,97955.88
2023-04-15T05:09:19.090Z,97975.50
2023-04-15T05:14:22.937Z,98007.66
2023-04-15T05:19:25.731Z,97999.84
2023-04-15T05:24:27.990Z,98055.59
2023-04-15T05:29:30.791Z,98039.47
2023-04-15T05:34:32.959Z,98011.22
2023-04-15T05:39:35.275Z,98088.53
2023-04-15T05:44:37.381Z,98081.47
2023-04-15T05:49:39.626Z,98094.00
2023-04-15T05:54:41.749Z,98104.63
2023-04-15T05:59:44.936Z,98116.34
2023-04-15T06:04:47.410Z,98008.81
2023-04-15T06:09:49.692Z,98094.00
2023-04-15T06:14:51.958Z,98000.97
2023-04-15T06:19:55.965Z,98105.75
2023-04-15T06:24:58.222Z,98111.16
2023-04-15T06:30:00.495Z,98093.94
2023-04-15T06:35:02.706Z,98099.28
2023-04-15T06:40:05.831Z,98126.66
2023-04-15T06:45:30.004Z,98127.03
2023-04-15T06:50:32.612Z,98124.28
2023-04-15T06:55:34.779Z,98133.13
2023-04-15T07:00:38.977Z,98120.25
2023-04-15T07:05:41.718Z,98143.13
2023-04-15T07:10:44.916Z,98085.69
2023-04-15T07:15:47.019Z,98095.97
2023-04-15T07:20:49.150Z,98010.47
2023-04-15T07:25:52.185Z,98121.31
2023-04-15T07:30:54.872Z,98024.03
2023-04-15T07:35:57.318Z,98167.00
2023-04-15T07:40:59.825Z,98080.53
2023-04-15T07:46:01.999Z,98141.66
2023-04-15T07:51:04.285Z,98098.81
2023-04-15T07:56:06.914Z,98138.63
2023-04-15T08:01:09.202Z,98184.78
2023-04-15T08:06:11.587Z,98159.28
2023-04-15T08:11:13.980Z,98108.69
2023-04-15T08:16:25.273Z,98098.72
2023-04-15T08:21:27.936Z,98181.84
2023-04-15T08:26:30.224Z,98156.53
2023-04-15T08:31:32.463Z,98177.75
2023-04-15T08:36:34.891Z,98162.09
2023-04-15T08:41:49.700Z,98127.44
2023-04-15T08:46:52.928Z,98169.25
2023-04-15T08:51:58.791Z,98163.47
2023-04-15T08:57:02.482Z,98169.28
2023-04-15T09:02:04.829Z,98247.06
2023-04-15T09:07:07.423Z,98252.59
2023-04-15T09:12:11.511Z,98198.06
2023-04-15T09:17:13.975Z,98229.56
2023-04-15T09:22:16.598Z,98204.78
2023-04-15T09:27:18.795Z,98267.53
2023-04-15T09:32:24.866Z,98263.97
2023-04-15T09:37:36.827Z,98198.34
2023-04-15T09:42:56.201Z,98305.03
2023-04-15T09:48:00.691Z,98234.66
2023-04-15T09:53:04.283Z,98307.16
2023-04-15T09:58:19.371Z,98308.31
2023-04-15T10:03:53.182Z,98268.06
2023-04-15T10:09:01.494Z,98318.03
2023-04-15T10:14:04.781Z,98170.16
2023-04-15T10:19:09.563Z,98299.34
2023-04-15T10:24:12.397Z,98365.94
2023-04-15T10:29:14.816Z,98275.44
2023-04-15T10:34:18.353Z,98234.00
2023-04-15T10:39:43.529Z,98353.66
2023-04-15T10:44:52.328Z,98314.84
2023-04-15T10:50:02.656Z,98354.25
2023-04-15T10:55:16.657Z,98346.94
2023-04-15T11:00:21.844Z,98353.66
2023-04-15T11:05:53.147Z,98434.22
2023-04-15T11:10:55.458Z,98405.41
2023-04-15T11:15:59.139Z,98405.53
2023-04-15T11:21:05.385Z,98360.75
2023-04-15T11:26:12.062Z,98429.75
2023-04-15T11:31:18.109Z,98388.34
2023-04-15T11:36:20.838Z,98361.25
2023-04-15T11:41:26.257Z,98457.53
2023-04-15T11:46:32.425Z,98415.88
2023-04-15T11:51:35.695Z,98381.19
2023-04-15T11:56:37.876Z,98421.75
2023-04-15T12:01:42.288Z,98434.63
2023-04-15T12:06:44.969Z,98455.84
2023-04-15T12:11:49.017Z,98420.75
2023-04-15T12:16:54.526Z,98405.81
2023-04-15T12:22:04.554Z,98444.25
2023-04-15T12:27:17.924Z,98459.78
2023-04-15T12:32:21.165Z,98388.81
2023-04-15T12:37:23.545Z,98516.16
2023-04-15T12:42:25.909Z,98428.56
2023-04-15T12:47:28.191Z,98477.34
2023-04-15T12:52:30.486Z,98407.66
2023-04-15T12:57:33.122Z,98445.25
2023-04-15T13:02:35.449Z,98442.72
2023-04-15T13:07:37.712Z,98458.44
2023-04-15T13:12:39.912Z,98506.31
2023-04-15T13:17:42.144Z,98472.00
2023-04-15T13:22:44.461Z,98459.53
2023-04-15T13:27:47.374Z,98424.53
2023-04-15T13:32:51.314Z,98528.28
2023-04-15T13:37:55.806Z,98610.63
2023-04-15T13:42:58.708Z,98606.72
2023-04-15T13:48:01.388Z,98549.16
2023-04-15T13:53:03.596Z,98558.47
2023-04-15T13:58:06.230Z,98548.63
2023-04-15T14:03:08.434Z,98525.47
2023-04-15T14:08:10.972Z,98542.16
2023-04-15T14:13:13.181Z,98459.06
2023-04-15T14:18:15.552Z,98534.75
2023-04-15T14:23:17.789Z,98597.75
2023-04-15T14:28:20.002Z,98599.03
2023-04-15T14:33:22.105Z,98551.00
2023-04-15T14:38:24.506Z,98610.44
2023-04-15T14:43:26.729Z,98562.38
2023-04-15T14:48:29.350Z,98623.19
2023-04-15T14:53:31.713Z,98568.16
2023-04-15T14:58:33.985Z,98493.69
2023-04-15T15:03:36.507Z,98534.63
2023-04-15T15:08:38.770Z,98555.91
2023-04-15T15:13:40.866Z,98528.09
2023-04-15T15:18:43.153Z,98565.34
2023-04-15T15:23:46.019Z,98653.59
2023-04-15T15:28:50.510Z,98583.19
2023-04-15T15:33:53.206Z,98577.19
2023-04-15T15:38:55.657Z,98586.63
2023-04-15T15:43:57.761Z,98605.38
2023-04-15T15:49:00.037Z,98587.78
2023-04-15T15:54:02.127Z,98581.44
2023-04-15T15:59:04.995Z,98557.81
2023-04-15T16:04:07.652Z,98568.88
2023-04-15T16:09:10.090Z,98696.19
2023-04-15T16:14:13.959Z,98652.47
2023-04-15T16:19:16.460Z,98653.38
2023-04-15T16:24:18.692Z,98643.50
2023-04-15T16:29:20.785Z,98587.22
2023-04-15T16:34:22.950Z,98608.09
2023-04-15T16:39:25.254Z,98650.97
2023-04-15T16:44:27.640Z,98717.88
2023-04-15T16:49:30.387Z,98641.25
2023-04-15T16:54:34.883Z,98702.31
2023-04-15T16:59:38.310Z,98681.44
2023-04-15T17:04:41.638Z,98699.50
2023-04-15T17:09:43.967Z,98580.56
2023-04-15T17:14:46.213Z,98698.53
2023-04-15T17:19:48.571Z,98635.31
2023-04-15T17:24:51.045Z,98731.41
2023-04-15T17:29:53.228Z,98738.56
2023-04-15T17:34:55.527Z,98729.25
2023-04-15T17:39:57.773Z,98776.69
2023-04-15T17:45:00.051Z,98661.38
2023-04-15T17:50:02.327Z,98701.22
2023-04-15T17:55:04.895Z,98750.16
2023-04-15T18:00:08.950Z,98687.22
2023-04-15T18:05:15.237Z,98693.56
2023-04-15T18:10:17.716Z,98787.41
2023-04-15T18:15:19.928Z,98810.69
2023-04-15T18:20:22.319Z,98808.69
2023-04-15T18:25:24.569Z,98781.09
2023-04-15T18:30:26.801Z,98828.06
2023-04-15T18:35:30.082Z,98706.16
2023-04-15T18:40:32.975Z,98755.41
2023-04-15T18:45:37.152Z,98764.47
2023-04-15T18:50:39.404Z,98820.81
2023-04-15T18:55:41.706Z,98834.66
2023-04-15T19:00:43.977Z,98765.59
2023-04-15T19:05:46.458Z,98766.03
2023-04-15T19:10:48.651Z,98874.06
2023-04-15T19:15:50.740Z,98905.75
2023-04-15T19:20:55.817Z,98839.38
2023-04-15T19:25:58.710Z,98888.25
2023-04-15T19:31:00.913Z,98880.72
2023-04-15T19:36:06.778Z,98936.41
2023-04-15T19:41:10.361Z,98854.31
2023-04-15T19:46:13.480Z,98842.31
2023-04-15T19:51:15.975Z,98924.47
2023-04-15T19:56:18.336Z,98899.28
2023-04-15T20:01:21.445Z,98973.59
2023-04-15T20:06:23.830Z,98997.69
2023-04-15T20:12:47.476Z,98933.75
2023-04-15T20:16:51.784Z,98973.97
2023-04-15T20:21:54.489Z,99029.28
2023-04-15T20:26:57.671Z,98977.53
2023-04-15T20:31:59.908Z,98920.41
2023-04-15T20:37:02.425Z,98937.78
2023-04-15T20:42:10.846Z,99029.41
2023-04-15T20:47:13.363Z,98898.13
2023-04-15T20:52:15.807Z,98991.56
2023-04-15T20:57:18.059Z,98996.13
2023-04-15T21:02:20.308Z,99099.88
2023-04-15T21:07:22.645Z,99032.56
2023-04-15T21:12:24.766Z,99046.19
2023-04-15T21:17:27.117Z,98924.03
2023-04-15T21:22:29.325Z,99005.22
2023-04-15T21:27:31.567Z,99092.47
2023-04-15T21:32:33.909Z,99091.69
2023-04-15T21:37:37.671Z,99149.06
2023-04-15T21:42:39.942Z,99064.59
2023-04-15T21:48:06.776Z,99110.50
2023-04-15T21:53:07.997Z,99008.41
2023-04-15T21:58:10.255Z,99077.84
2023-04-15T22:03:12.500Z,99012.81
2023-04-15T22:08:14.697Z,99168.59
2023-04-15T22:13:16.881Z,99124.13
2023-04-15T22:18:19.021Z,99140.03
2023-04-15T22:23:21.161Z,99038.72
2023-04-15T22:28:23.382Z,99053.06
2023-04-15T22:33:25.487Z,99044.22
2023-04-15T22:38:27.580Z,99148.56
2023-04-15T22:43:29.792Z,99116.34
2023-04-15T22:48:32.017Z,99159.75
2023-04-15T22:53:34.242Z,99083.78
2023-04-15T22:58:36.357Z,99171.13
2023-04-15T23:03:53.709Z,99158.28
2023-04-15T23:08:59.583Z,99199.88
2023-04-15T23:14:02.345Z,99015.03
2023-04-15T23:19:04.459Z,99105.72
2023-04-15T23:24:07.064Z,99083.25
2023-04-15T23:29:10.546Z,99178.47
2023-04-15T23:34:12.787Z,99109.09
2023-04-15T23:39:14.875Z,99187.69
2023-04-15T23:44:16.977Z,99183.44
2023-04-15T23:49:20.324Z,99085.59
2023-04-15T23:54:22.839Z,99122.50
2023-04-15T23:59:25.353Z,99170.47
